Time;durP1;ratioP1;P1;durP2;ratioP2;P2;SDS_P1;SDS_P2;PMS_P1;PMS_P2;Temp;Humidity;BMP_temperature;BMP_pressure;BME280_temperature;BME280_humidity;BME280_pressure;Samples;Min_cycle;Max_cycle;Signal;HPM_P1;HPM_P2
2023/06/29 00:01:02;;;;;;;37.08;26.80;;;;;;;24.30;56.24;101079.63;5057271;28;20207;-67
2023/06/29 00:03:31;;;;;;;37.88;26.65;;;;;;;24.46;56.29;101082.88;5060447;28;20041;-68
2023/06/29 00:06:00;;;;;;;37.25;26.88;;;;;;;24.78;55.32;101077.34;5062301;28;20057;-69
2023/06/29 00:08:28;;;;;;;39.72;27.98;;;;;;;24.86;54.31;101076.13;5058246;28;20052;-68
2023/06/29 00:10:56;;;;;;;35.88;26.90;;;;;;;24.64;55.35;101082.09;5052261;28;20064;-68
2023/06/29 00:13:25;;;;;;;38.05;28.00;;;;;;;24.35;54.94;101082.06;5058016;28;20372;-67
2023/06/29 00:15:52;;;;;;;38.67;29.02;;;;;;;24.49;55.87;101073.66;5061999;28;20071;-68
2023/06/29 00:18:20;;;;;;;33.88;25.42;;;;;;;24.89;55.11;101068.91;5068027;28;20053;-68
2023/06/29 00:20:47;;;;;;;40.17;29.23;;;;;;;24.60;54.09;101064.41;5055903;28;20049;-67
2023/06/29 00:23:15;;;;;;;40.67;28.70;;;;;;;24.67;55.26;101064.44;5064558;28;20056;-67
2023/06/29 00:25:44;;;;;;;43.03;30.75;;;;;;;24.70;55.56;101061.66;5062285;28;20400;-68
2023/06/29 00:28:12;;;;;;;38.92;28.60;;;;;;;24.96;54.58;101057.63;5053920;28;20159;-67
2023/06/29 00:30:39;;;;;;;41.63;29.15;;;;;;;24.87;54.31;101051.59;5042080;28;20120;-67
2023/06/29 00:33:06;;;;;;;40.88;30.05;;;;;;;24.90;54.85;101056.41;5071834;28;20039;-66
2023/06/29 00:35:35;;;;;;;36.08;27.63;;;;;;;25.05;53.67;101058.03;5055422;28;20040;-67
2023/06/29 00:38:02;;;;;;;41.13;29.40;;;;;;;24.96;53.84;101046.34;5061935;28;20519;-68
2023/06/29 00:40:30;;;;;;;39.45;29.98;;;;;;;25.03;54.12;101044.34;5070088;28;20392;-67
2023/06/29 00:42:58;;;;;;;36.00;28.02;;;;;;;25.15;53.78;101051.56;5060729;28;20052;-67
2023/06/29 00:45:25;;;;;;;43.65;30.73;;;;;;;25.12;53.51;101044.72;5060052;28;20053;-66
2023/06/29 00:47:53;;;;;;;44.22;31.10;;;;;;;25.15;54.03;101038.28;5052006;28;20053;-68
2023/06/29 00:50:21;;;;;;;52.78;34.95;;;;;;;24.92;53.92;101031.44;5059178;28;20048;-68
2023/06/29 00:52:49;;;;;;;52.65;35.05;;;;;;;24.96;53.99;101029.44;5045055;28;20051;-67
2023/06/29 00:55:16;;;;;;;42.38;32.33;;;;;;;24.89;54.05;101032.25;5055018;28;20420;-67
2023/06/29 00:57:45;;;;;;;58.30;37.47;;;;;;;24.86;54.05;101033.06;5065901;28;20059;-68
2023/06/29 01:00:14;;;;;;;51.45;34.72;;;;;;;25.03;54.12;101023.81;5051984;28;20056;-67
2023/06/29 01:02:41;;;;;;;52.53;38.75;;;;;;;24.72;52.93;101021.78;5052716;28;20056;-68
2023/06/29 01:05:10;;;;;;;59.28;39.17;;;;;;;24.59;53.58;101023.34;5051601;28;20052;-68
2023/06/29 01:08:00;;;;;;;51.22;38.00;;;;;;;24.79;54.78;101011.34;5053770;28;20048;-67
2023/06/29 01:10:28;;;;;;;51.67;36.58;;;;;;;24.96;53.78;101021.81;5066585;28;20166;-67
2023/06/29 01:12:59;;;;;;;49.88;36.28;;;;;;;25.00;53.93;101014.13;5068747;28;20063;-68
2023/06/29 01:15:26;;;;;;;56.10;39.85;;;;;;;24.85;54.02;101012.53;5062262;28;20053;-67
2023/06/29 01:17:55;;;;;;;55.78;38.20;;;;;;;24.78;52.61;101009.72;5056130;28;20052;-66
2023/06/29 01:20:25;;;;;;;53.20;35.67;;;;;;;24.64;54.50;101000.41;5063815;28;20056;-67
2023/06/29 01:23:05;;;;;;;48.35;35.00;;;;;;;24.33;55.07;101013.25;5059709;28;20063;-68
2023/06/29 01:25:32;;;;;;;49.07;34.77;;;;;;;24.48;55.32;100995.97;5060541;28;20049;-67
2023/06/29 01:28:05;;;;;;;55.10;35.95;;;;;;;24.44;54.65;101003.63;5062502;28;20388;-68
2023/06/29 01:30:39;;;;;;;49.40;36.63;;;;;;;24.55;54.66;101014.91;5070346;28;20052;-67
2023/06/29 01:33:07;;;;;;;53.33;36.80;;;;;;;24.39;55.56;101009.66;5066577;28;20055;-68
2023/06/29 01:35:35;;;;;;;48.47;35.15;;;;;;;24.38;55.75;101010.88;5060451;28;20060;-67
2023/06/29 01:38:13;;;;;;;43.80;33.15;;;;;;;24.73;55.16;101015.75;5060268;28;20147;-68
2023/06/29 01:40:41;;;;;;;45.53;32.63;;;;;;;25.00;54.01;101004.88;5068357;28;20049;-67
2023/06/29 01:43:08;;;;;;;48.45;36.78;;;;;;;24.95;53.62;101014.53;5049378;28;20053;-67
2023/06/29 01:45:37;;;;;;;46.63;31.63;;;;;;;25.07;54.18;101010.50;5052009;28;20492;-67
2023/06/29 01:48:05;;;;;;;51.25;36.95;;;;;;;25.16;53.50;101017.34;5067588;28;20040;-68
2023/06/29 01:50:33;;;;;;;50.38;38.60;;;;;;;24.95;54.22;101006.06;5060474;28;20041;-68
2023/06/29 01:53:03;;;;;;;47.10;34.55;;;;;;;24.77;54.80;101008.13;5028895;28;20052;-67
2023/06/29 01:55:31;;;;;;;50.13;36.10;;;;;;;24.82;54.47;101006.91;5041981;28;20048;-67
2023/06/29 01:57:58;;;;;;;49.78;36.00;;;;;;;24.99;54.07;100997.63;5061282;28;20055;-67
2023/06/29 02:00:26;;;;;;;48.75;35.45;;;;;;;24.94;54.20;100998.03;5060744;28;20479;-67
2023/06/29 02:02:54;;;;;;;50.30;35.67;;;;;;;25.18;53.63;101006.47;5062924;28;20049;-68
2023/06/29 02:05:24;;;;;;;50.30;35.55;;;;;;;25.34;53.03;100994.75;5071623;28;20048;-68
2023/06/29 02:07:52;;;;;;;50.78;36.92;;;;;;;25.29;52.99;100997.97;5061154;28;20055;-67
2023/06/29 02:10:21;;;;;;;51.88;36.45;;;;;;;25.25;53.32;100988.72;5052583;28;20049;-68
2023/06/29 02:12:48;;;;;;;51.40;36.88;;;;;;;25.22;53.61;100981.06;5050858;28;20404;-67
2023/06/29 02:15:15;;;;;;;50.05;35.05;;;;;;;25.02;53.97;100986.34;5058264;28;20583;-66
2023/06/29 02:17:43;;;;;;;48.75;36.03;;;;;;;25.14;53.80;100987.97;5066204;28;20055;-68
2023/06/29 02:20:12;;;;;;;44.67;34.95;;;;;;;25.09;52.99;100985.56;5039029;28;20053;-66
2023/06/29 02:22:40;;;;;;;51.60;36.08;;;;;;;25.16;53.37;100989.13;5059643;28;20058;-67
2023/06/29 02:25:10;;;;;;;47.83;35.83;;;;;;;24.86;52.76;100985.16;5051712;28;20044;-67
2023/06/29 02:27:38;;;;;;;47.00;34.35;;;;;;;24.55;53.10;100981.09;5052088;28;20059;-67
2023/06/29 02:30:06;;;;;;;43.97;32.08;;;;;;;24.71;54.69;100981.53;5061438;28;20053;-67
2023/06/29 02:32:34;;;;;;;45.17;33.80;;;;;;;24.42;54.86;100975.06;5019509;28;20060;-67
2023/06/29 02:35:03;;;;;;;42.53;32.13;;;;;;;24.37;55.21;100977.47;5054870;28;20587;-68
2023/06/29 02:37:31;;;;;;;42.80;31.40;;;;;;;24.60;55.08;100982.72;5047520;28;20045;-67
2023/06/29 02:39:58;;;;;;;42.90;31.52;;;;;;;24.35;55.54;100972.25;5042687;28;20099;-68
2023/06/29 02:42:27;;;;;;;41.08;31.45;;;;;;;24.70;54.59;100979.13;5030493;28;20033;-68
2023/06/29 02:44:54;;;;;;;43.00;32.10;;;;;;;24.94;54.05;100967.84;5061704;28;20515;-67
2023/06/29 02:47:22;;;;;;;42.17;29.65;;;;;;;24.86;53.21;100971.06;5059752;28;20045;-68
2023/06/29 02:49:50;;;;;;;42.67;31.75;;;;;;;24.91;53.98;100968.66;5040195;28;20056;-68
2023/06/29 02:52:19;;;;;;;46.63;33.05;;;;;;;25.07;53.33;100965.41;5029271;28;20045;-67
2023/06/29 02:54:49;;;;;;;43.13;31.25;;;;;;;24.80;53.68;100965.03;5059886;28;20045;-66
2023/06/29 02:57:17;;;;;;;;;;;;;;;24.80;54.25;100964.22;5060546;28;20047;-68
2023/06/29 02:59:45;;;;;;;48.58;32.33;;;;;;;24.93;53.73;100974.66;5068541;28;19924;-67
2023/06/29 03:02:13;;;;;;;42.63;30.67;;;;;;;24.98;52.85;100968.66;5052843;28;20064;-67
2023/06/29 03:04:42;;;;;;;40.38;30.05;;;;;;;24.98;53.34;100970.66;5061471;28;20447;-68
2023/06/29 03:07:09;;;;;;;38.70;29.80;;;;;;;25.13;53.06;100972.22;5061408;28;20070;-67
2023/06/29 03:09:36;;;;;;;41.05;30.70;;;;;;;25.16;53.59;100972.22;5052018;28;20067;-68
2023/06/29 03:12:04;;;;;;;41.63;30.17;;;;;;;25.19;53.37;100959.34;5056738;28;20075;-68
2023/06/29 03:14:33;;;;;;;40.40;29.95;;;;;;;25.20;53.45;100966.56;5056413;28;20490;-67
2023/06/29 03:17:01;;;;;;;41.08;30.75;;;;;;;25.19;53.47;100967.81;5058772;28;20053;-66
2023/06/29 03:19:28;;;;;;;40.78;30.45;;;;;;;25.09;53.68;100969.41;5054130;28;20049;-67
2023/06/29 03:21:56;;;;;;;41.10;30.50;;;;;;;25.04;53.20;100963.38;5036671;28;20049;-67
2023/06/29 03:24:23;;;;;;;37.15;28.90;;;;;;;25.21;52.87;100969.00;5050715;28;20052;-68
2023/06/29 03:26:51;;;;;;;38.75;30.13;;;;;;;25.28;52.93;100966.16;5061201;28;20056;-67
2023/06/29 03:29:20;;;;;;;35.80;29.52;;;;;;;25.23;53.13;100963.75;5060067;28;20041;-67
2023/06/29 03:31:48;;;;;;;39.67;29.75;;;;;;;25.16;53.00;100971.41;5059182;28;20045;-68
2023/06/29 03:34:15;;;;;;;44.35;30.92;;;;;;;25.11;53.16;100964.19;5065792;28;20059;-67
2023/06/29 03:36:42;;;;;;;39.38;30.35;;;;;;;25.15;53.22;100965.00;5054344;28;20044;-67
2023/06/29 03:39:10;;;;;;;39.90;30.30;;;;;;;25.17;53.20;100968.22;5041475;28;20037;-67
2023/06/29 03:41:37;;;;;;;39.22;30.27;;;;;;;25.23;52.74;100962.94;5059258;28;20052;-68
2023/06/29 03:44:04;;;;;;;39.17;30.80;;;;;;;25.09;52.93;100965.81;5043051;28;20049;-67
2023/06/29 03:46:32;;;;;;;41.00;30.67;;;;;;;25.16;53.06;100960.94;5031984;28;20048;-66
2023/06/29 03:48:59;;;;;;;44.38;30.73;;;;;;;25.20;52.91;100961.75;5063157;28;20052;-69
2023/06/29 03:51:27;;;;;;;37.03;29.48;;;;;;;25.32;52.25;100966.13;5064090;28;20063;-67
2023/06/29 03:53:54;;;;;;;38.38;29.23;;;;;;;25.34;52.36;100967.34;5052325;28;20052;-67
2023/06/29 03:56:21;;;;;;;40.65;30.75;;;;;;;25.18;52.90;100967.00;5060380;28;20687;-67
2023/06/29 03:58:49;;;;;;;45.47;33.85;;;;;;;25.08;52.86;100959.38;5053062;28;20053;-69
2023/06/29 04:01:16;;;;;;;51.25;38.92;;;;;;;24.52;55.09;100959.38;5057317;28;20045;-68
2023/06/29 04:03:43;;;;;;;54.50;38.00;;;;;;;24.76;54.43;100964.22;5055370;28;20053;-68
2023/06/29 04:06:11;;;;;;;52.42;37.80;;;;;;;25.06;53.69;100955.31;5054613;28;20056;-69
2023/06/29 04:08:38;;;;;;;51.15;36.33;;;;;;;25.02;53.76;100957.38;5060834;28;20053;-68
2023/06/29 04:11:05;;;;;;;57.63;40.67;;;;;;;24.95;53.61;100952.53;5053817;28;20464;-68
2023/06/29 04:13:33;;;;;;;55.88;39.35;;;;;;;25.01;54.05;100950.09;5053366;28;20040;-69
2023/06/29 04:16:00;;;;;;;54.92;40.30;;;;;;;24.44;54.88;100950.09;5055500;28;20056;-67
2023/06/29 04:18:28;;;;;;;53.28;38.42;;;;;;;24.65;55.23;100940.06;5053369;28;20049;-67
2023/06/29 04:20:55;;;;;;;56.42;42.75;;;;;;;24.76;54.87;100938.88;5054283;28;20068;-68
2023/06/29 04:23:22;;;;;;;56.20;40.38;;;;;;;24.76;55.20;100941.69;5050903;28;20053;-68
2023/06/29 04:25:50;;;;;;;56.85;41.88;;;;;;;24.79;54.95;100931.63;5066976;28;20074;-68
2023/06/29 04:28:17;;;;;;;50.85;37.63;;;;;;;24.93;54.95;100937.25;5069019;28;20040;-68
2023/06/29 04:30:44;;;;;;;55.35;39.80;;;;;;;24.93;54.69;100938.03;5063827;28;20056;-68
2023/06/29 04:33:14;;;;;;;58.67;41.35;;;;;;;24.75;55.25;100940.09;5054425;28;20413;-67
2023/06/29 04:35:43;;;;;;;53.17;38.03;;;;;;;24.71;55.87;100932.81;5066508;28;20048;-68
2023/06/29 04:38:13;;;;;;;59.55;40.35;;;;;;;24.82;55.75;100928.00;5058097;28;20051;-68
2023/06/29 04:40:42;;;;;;;57.83;40.40;;;;;;;24.45;56.86;100932.03;5065517;28;20659;-68
2023/06/29 04:43:09;;;;;;;59.85;42.00;;;;;;;24.31;57.39;100934.81;5061336;28;20139;-68
2023/06/29 04:45:37;;;;;;;55.60;41.20;;;;;;;24.12;57.96;100931.56;5056367;28;20079;-67
2023/06/29 04:48:04;;;;;;;53.78;37.45;;;;;;;24.47;57.43;100934.44;5064236;28;20056;-69
2023/06/29 04:50:35;;;;;;;57.78;40.28;;;;;;;24.68;56.64;100936.44;5061113;28;20056;-68
2023/06/29 04:53:12;;;;;;;52.50;38.88;;;;;;;24.76;56.43;100936.03;5066205;28;20040;-69
2023/06/29 04:55:39;;;;;;;54.08;37.65;;;;;;;24.75;56.71;100937.28;5061898;28;20048;-68
2023/06/29 04:58:07;;;;;;;56.05;40.10;;;;;;;24.85;56.06;100944.91;5056778;28;20057;-67
2023/06/29 05:00:34;;;;;;;56.78;38.15;;;;;;;24.80;56.18;100948.13;5061050;28;20067;-68
2023/06/29 05:03:02;;;;;;;54.72;40.80;;;;;;;24.58;57.01;100946.50;5057608;28;20536;-69
2023/06/29 05:05:29;;;;;;;56.38;40.28;;;;;;;24.34;58.29;100945.28;5053140;28;20143;-68
2023/06/29 05:07:57;;;;;;;63.20;40.58;;;;;;;24.36;57.98;100947.69;5054524;28;20056;-68
2023/06/29 05:10:24;;;;;;;60.72;41.47;;;;;;;23.76;60.41;100958.00;5053124;28;20488;-68
2023/06/29 05:12:52;;;;;;;59.85;41.65;;;;;;;23.32;62.36;100961.81;5054202;28;20056;-67
2023/06/29 05:15:19;;;;;;;55.88;38.97;;;;;;;23.94;60.27;100954.03;5059214;28;20064;-68
2023/06/29 05:17:47;;;;;;;58.90;39.40;;;;;;;24.21;59.29;100946.06;5050269;28;20187;-69
2023/06/29 05:20:15;;;;;;;52.08;36.33;;;;;;;24.57;58.12;100950.50;5055840;28;20067;-68
2023/06/29 05:22:43;;;;;;;50.45;36.80;;;;;;;24.65;57.60;100937.25;5057948;28;20041;-68
2023/06/29 05:25:11;;;;;;;53.92;38.85;;;;;;;24.68;57.64;100947.69;5057472;28;20064;-67
2023/06/29 05:27:38;;;;;;;49.03;36.33;;;;;;;24.76;57.26;100946.53;5062390;28;20467;-67
2023/06/29 05:30:08;;;;;;;54.40;38.78;;;;;;;24.44;58.61;100949.31;5042528;28;20059;-67
2023/06/29 05:32:36;;;;;;;54.22;38.38;;;;;;;24.31;59.68;100953.72;5062763;28;20041;-68
2023/06/29 05:35:04;;;;;;;51.90;38.55;;;;;;;24.36;59.26;100951.31;5054505;28;20040;-69
2023/06/29 05:37:33;;;;;;;54.22;37.40;;;;;;;24.55;58.69;100952.94;5061219;28;20049;-67
2023/06/29 05:40:01;;;;;;;53.50;36.13;;;;;;;24.38;59.30;100951.72;5071726;28;20068;-68
2023/06/29 05:42:28;;;;;;;51.85;36.28;;;;;;;24.55;58.72;100952.94;5056469;28;20048;-68
2023/06/29 05:44:56;;;;;;;50.80;36.13;;;;;;;24.69;58.34;100952.97;5064895;28;20052;-67
2023/06/29 05:47:24;;;;;;;52.80;36.38;;;;;;;24.50;59.16;100951.31;5063116;28;20052;-68
2023/06/29 05:49:51;;;;;;;48.03;35.10;;;;;;;24.28;60.04;100949.72;5058131;28;20044;-69
2023/06/29 05:52:22;;;;;;;60.63;35.58;;;;;;;24.32;60.55;100956.13;5061416;28;20056;-68
2023/06/29 05:54:49;;;;;;;46.63;34.85;;;;;;;24.27;60.72;100953.72;5063032;28;20500;-71
2023/06/29 05:57:17;;;;;;;48.65;34.17;;;;;;;23.74;62.69;100954.78;5063223;28;20781;-68
2023/06/29 05:59:44;;;;;;;43.95;31.75;;;;;;;24.12;62.19;100951.28;5068129;28;20037;-69
2023/06/29 06:02:11;;;;;;;44.05;32.22;;;;;;;24.45;60.67;100951.72;5060360;28;21118;-69
2023/06/29 06:04:45;;;;;;;43.90;32.10;;;;;;;24.59;60.51;100947.28;5059469;28;20049;-68
2023/06/29 06:07:27;;;;;;;44.40;31.60;;;;;;;24.65;59.75;100951.31;5060429;28;20048;-69
2023/06/29 06:09:55;;;;;;;42.88;31.75;;;;;;;24.33;61.28;100949.31;5058211;28;20051;-68
2023/06/29 06:12:23;;;;;;;56.22;32.92;;;;;;;24.59;60.41;100947.28;5060466;28;20590;-68
2023/06/29 06:14:51;;;;;;;46.83;32.45;;;;;;;24.20;61.76;100948.06;5037307;28;20063;-69
2023/06/29 06:17:19;;;;;;;53.08;33.67;;;;;;;24.20;62.03;100950.88;5050537;28;20057;-69
2023/06/29 06:19:46;;;;;;;47.10;32.53;;;;;;;24.51;61.09;100949.31;5044411;28;20057;-69
2023/06/29 06:22:14;;;;;;;48.13;31.23;;;;;;;24.48;61.37;100950.09;5070963;28;20057;-69
2023/06/29 06:24:42;;;;;;;51.42;31.27;;;;;;;24.56;60.81;100948.09;5066806;28;20052;-68
2023/06/29 06:27:09;;;;;;;43.30;30.70;;;;;;;24.56;61.09;100942.47;5059728;28;20041;-68
2023/06/29 06:29:37;;;;;;;45.33;31.75;;;;;;;24.51;61.48;100940.88;5069731;28;20534;-67
2023/06/29 06:32:05;;;;;;;51.53;31.90;;;;;;;24.56;61.11;100945.28;5055126;28;20053;-68
2023/06/29 06:34:33;;;;;;;49.13;32.15;;;;;;;24.32;61.95;100944.88;5049285;28;20041;-68
2023/06/29 06:37:01;;;;;;;46.15;31.17;;;;;;;24.78;60.74;100947.72;5059057;28;20545;-68
2023/06/29 06:39:32;;;;;;;48.20;31.00;;;;;;;24.50;61.46;100950.50;5060475;28;20059;-68
2023/06/29 06:42:00;;;;;;;61.50;34.17;;;;;;;24.37;62.67;100940.88;5063639;28;20052;-68
2023/06/29 06:44:28;;;;;;;52.40;32.65;;;;;;;23.86;64.76;100941.16;5048122;28;20044;-66
2023/06/29 06:46:55;;;;;;;52.38;32.97;;;;;;;23.77;65.52;100948.34;5049252;28;20049;-66
2023/06/29 06:49:23;;;;;;;49.95;32.58;;;;;;;23.70;65.81;100949.13;5059392;28;20412;-65
2023/06/29 06:51:51;;;;;;;56.55;32.47;;;;;;;23.10;69.30;100945.22;5061378;28;20527;-64
2023/06/29 06:54:18;;;;;;;53.08;32.88;;;;;;;22.98;70.11;100945.53;5059096;28;20086;-65
2023/06/29 06:56:48;;;;;;;50.60;32.70;;;;;;;23.38;68.98;100945.38;5045612;28;20053;-64
2023/06/29 06:59:16;;;;;;;59.05;33.70;;;;;;;23.28;69.44;100951.75;5040066;28;20049;-64
2023/06/29 07:01:43;;;;;;;50.92;33.05;;;;;;;23.04;70.32;100943.94;5049603;28;20037;-64
2023/06/29 07:04:11;;;;;;;55.72;34.55;;;;;;;22.87;71.71;100951.06;5054495;28;20041;-64
2023/06/29 07:06:38;;;;;;;49.97;32.67;;;;;;;22.92;71.37;100945.09;5058685;28;20060;-64
2023/06/29 07:09:07;;;;;;;48.50;32.78;;;;;;;22.94;70.97;100955.94;5058647;28;20067;-64
2023/06/29 07:11:36;;;;;;;47.33;32.95;;;;;;;22.65;72.98;100949.28;5057701;28;20044;-65
2023/06/29 07:14:04;;;;;;;48.33;33.97;;;;;;;22.89;71.76;100950.69;5055088;28;20040;-63
2023/06/29 07:16:32;;;;;;;44.85;30.80;;;;;;;23.18;70.34;100950.47;5050238;28;20052;-63
2023/06/29 07:19:11;;;;;;;55.58;32.53;;;;;;;23.02;70.83;100946.34;5057129;28;20061;-64
2023/06/29 07:21:42;;;;;;;48.60;32.20;;;;;;;23.00;71.54;100943.94;5059123;28;20053;-63
2023/06/29 07:24:10;;;;;;;54.42;32.47;;;;;;;23.47;69.60;100948.63;5050465;28;20049;-63
2023/06/29 07:26:38;;;;;;;52.30;32.20;;;;;;;23.80;68.77;100947.56;5065795;28;20049;-63
2023/06/29 07:29:06;;;;;;;50.53;31.50;;;;;;;23.86;67.66;100951.59;5070896;28;21280;-63
2023/06/29 07:31:34;;;;;;;52.00;31.63;;;;;;;23.68;68.45;100948.72;5063145;28;20060;-64
2023/06/29 07:34:02;;;;;;;66.35;33.55;;;;;;;23.63;68.67;100945.47;5066546;28;20044;-63
2023/06/29 07:36:29;;;;;;;50.28;31.38;;;;;;;23.70;67.85;100940.69;5068787;28;20067;-64
2023/06/29 07:38:57;;;;;;;50.20;33.25;;;;;;;23.39;68.83;100938.56;5078091;28;20045;-63
2023/06/29 07:41:24;;;;;;;58.80;34.10;;;;;;;23.07;71.03;100949.59;5072108;28;20049;-64
2023/06/29 07:43:56;;;;;;;52.20;32.63;;;;;;;23.05;70.76;100940.75;5073320;28;20044;-65
2023/06/29 07:46:24;;;;;;;54.90;33.53;;;;;;;23.13;70.49;100933.16;5072304;28;20044;-63
2023/06/29 07:48:51;;;;;;;54.45;32.05;;;;;;;23.09;70.69;100932.34;5070431;28;20060;-64
2023/06/29 07:51:20;;;;;;;47.85;31.80;;;;;;;23.01;71.04;100934.28;5063008;28;20049;-63
2023/06/29 07:53:47;;;;;;;51.50;31.27;;;;;;;23.35;70.25;100932.09;5065502;28;20053;-65
2023/06/29 07:56:14;;;;;;;55.22;32.70;;;;;;;23.83;68.09;100932.69;5070949;28;20451;-65
2023/06/29 07:58:42;;;;;;;50.40;32.45;;;;;;;23.39;69.28;100932.94;5070546;28;20049;-65
2023/06/29 08:01:09;;;;;;;51.92;31.23;;;;;;;23.47;69.15;100936.59;5066534;28;20068;-64
2023/06/29 08:03:37;;;;;;;57.00;32.00;;;;;;;23.29;69.96;100934.47;5066951;28;20071;-64
2023/06/29 08:06:24;;;;;;;48.28;31.52;;;;;;;23.09;70.84;100933.16;5053000;28;20107;-64
2023/06/29 08:08:54;;;;;;;50.55;32.22;;;;;;;23.52;69.63;100922.16;5049864;28;20041;-64
2023/06/29 08:11:22;;;;;;;54.90;32.25;;;;;;;23.38;69.82;100922.88;5068886;28;20080;-63
2023/06/29 08:13:49;;;;;;;59.17;32.45;;;;;;;23.80;68.12;100917.41;5069795;28;20041;-64
2023/06/29 08:16:17;;;;;;;50.03;32.15;;;;;;;23.95;67.66;100913.44;5065857;28;20044;-64
2023/06/29 08:18:44;;;;;;;48.13;32.35;;;;;;;23.96;67.80;100931.09;5066588;28;20055;-63
2023/06/29 08:21:12;;;;;;;53.53;31.83;;;;;;;24.40;65.23;100923.16;5064056;28;20055;-62
2023/06/29 08:23:39;;;;;;;53.25;30.83;;;;;;;24.13;66.52;100922.72;5072201;28;20067;-64
2023/06/29 08:26:07;;;;;;;45.97;30.15;;;;;;;24.41;65.10;100911.50;5071516;28;20119;-63
2023/06/29 08:28:34;;;;;;;50.80;30.48;;;;;;;24.60;64.09;100917.94;5069027;28;20055;-63
2023/06/29 08:31:01;;;;;;;47.53;29.92;;;;;;;24.75;64.01;100914.72;5064064;28;20060;-63
2023/06/29 08:33:33;;;;;;;44.13;29.98;;;;;;;24.91;62.72;100925.56;5063716;28;20052;-64
2023/06/29 08:36:00;;;;;;;47.60;32.65;;;;;;;24.69;62.75;100921.16;5056718;28;20056;-63
2023/06/29 08:38:28;;;;;;;44.50;31.27;;;;;;;24.62;63.51;100927.56;5060172;28;20056;-63
2023/06/29 08:40:58;;;;;;;47.35;31.13;;;;;;;24.92;62.51;100919.53;5061921;28;20048;-63
2023/06/29 08:43:26;;;;;;;48.50;31.08;;;;;;;24.66;63.03;100919.13;5054223;28;20045;-64
2023/06/29 08:45:53;;;;;;;50.40;32.83;;;;;;;24.07;64.69;100924.34;5066714;28;20656;-64
2023/06/29 08:48:22;;;;;;;45.35;30.60;;;;;;;23.68;67.29;100919.78;5059198;28;20045;-64
2023/06/29 08:50:54;;;;;;;46.42;31.10;;;;;;;23.85;67.47;100928.25;5064103;28;20157;-63
2023/06/29 08:53:22;;;;;;;47.40;30.67;;;;;;;24.05;66.59;100918.31;5040319;28;20187;-64
2023/06/29 08:55:50;;;;;;;50.85;30.40;;;;;;;23.95;66.36;100916.25;5060899;28;20053;-63
2023/06/29 08:58:20;;;;;;;49.88;31.40;;;;;;;23.35;68.94;100918.03;5060405;28;20052;-63
2023/06/29 09:00:48;;;;;;;50.88;30.65;;;;;;;23.56;68.02;100918.13;5056757;28;20041;-63
2023/06/29 09:03:16;;;;;;;47.28;30.23;;;;;;;23.69;67.32;100925.03;5058873;28;20559;-64
2023/06/29 09:05:45;;;;;;;49.08;31.67;;;;;;;23.76;67.21;100916.59;5057705;28;20060;-64
2023/06/29 09:08:13;;;;;;;55.22;30.98;;;;;;;23.60;67.22;100920.97;5057529;28;20055;-64
2023/06/29 09:10:41;;;;;;;45.65;31.85;;;;;;;23.70;67.06;100921.00;5054817;28;20041;-64
2023/06/29 09:13:09;;;;;;;47.63;32.50;;;;;;;23.39;67.89;100916.06;5053264;28;20052;-63
2023/06/29 09:15:38;;;;;;;47.65;32.78;;;;;;;23.48;68.35;100913.69;5060050;28;20048;-63
2023/06/29 09:18:07;;;;;;;49.38;33.55;;;;;;;23.12;69.75;100909.06;5054459;28;20044;-64
2023/06/29 09:20:34;;;;;;;54.83;34.50;;;;;;;23.28;69.56;100909.56;5056811;28;20451;-63
2023/06/29 09:23:05;;;;;;;49.95;33.95;;;;;;;23.51;68.72;100890.41;5056204;28;20052;-65
2023/06/29 09:25:33;;;;;;;58.60;33.47;;;;;;;23.88;66.72;100904.97;5062233;28;20575;-64
2023/06/29 09:28:03;;;;;;;55.42;31.33;;;;;;;24.07;65.96;100907.47;5058650;28;20048;-63
2023/06/29 09:30:34;;;;;;;55.65;32.63;;;;;;;24.46;64.51;100919.53;5034234;28;20052;-64
2023/06/29 09:33:12;;;;;;;53.10;32.33;;;;;;;24.03;65.24;100911.44;5064713;28;20053;-63
2023/06/29 09:35:47;;;;;;;55.60;32.53;;;;;;;23.35;67.23;100915.22;5059379;28;20381;-64
2023/06/29 09:38:15;;;;;;;52.70;32.75;;;;;;;23.03;68.78;100917.06;5056553;28;20056;-68
2023/06/29 09:40:51;;;;;;;50.50;30.80;;;;;;;23.54;67.20;100911.31;5059808;28;20066;-65
2023/06/29 09:43:26;;;;;;;47.70;31.10;;;;;;;23.15;68.18;100925.94;5063107;28;20040;-64
2023/06/29 09:46:05;;;;;;;47.60;30.92;;;;;;;23.40;67.37;100924.09;5061802;28;20392;-64
2023/06/29 09:48:32;;;;;;;47.08;29.70;;;;;;;23.76;66.29;100925.06;5029006;28;20060;-63
2023/06/29 09:51:04;;;;;;;43.97;28.75;;;;;;;24.19;64.16;100923.16;5068060;28;20048;-64
2023/06/29 09:53:33;;;;;;;44.33;27.20;;;;;;;24.20;63.54;100931.19;5064497;28;20048;-66
2023/06/29 09:56:02;;;;;;;43.63;27.70;;;;;;;24.23;62.95;100927.56;5059866;28;20072;-65
2023/06/29 09:58:30;;;;;;;35.67;26.77;;;;;;;24.36;61.62;100925.16;5061204;28;20049;-66
2023/06/29 10:00:59;;;;;;;37.10;26.48;;;;;;;24.61;61.01;100922.34;5060877;28;20040;-65
2023/06/29 10:03:27;;;;;;;43.65;26.15;;;;;;;24.91;59.38;100923.56;5061751;28;20056;-66
2023/06/29 10:06:16;;;;;;;35.50;25.30;;;;;;;24.67;59.88;100929.19;5058946;28;20396;-65
2023/06/29 10:08:45;;;;;;;37.25;24.85;;;;;;;24.38;60.67;100929.19;5059074;28;20078;-67
2023/06/29 10:11:13;;;;;;;38.97;25.17;;;;;;;24.70;59.59;100926.41;5052757;28;20056;-66
2023/06/29 10:13:45;;;;;;;37.38;24.45;;;;;;;24.95;58.46;100917.94;5041134;28;20052;-66
2023/06/29 10:16:15;;;;;;;47.83;24.80;;;;;;;24.51;60.24;100932.44;5052170;28;20052;-65
2023/06/29 10:18:46;;;;;;;33.45;24.80;;;;;;;24.87;59.04;100927.59;5055116;28;20049;-66
2023/06/29 10:21:13;;;;;;;35.10;22.90;;;;;;;25.17;57.27;100917.47;5060802;28;20049;-66
2023/06/29 10:23:43;;;;;;;33.25;24.42;;;;;;;25.16;57.87;100929.13;5052147;28;20483;-65
2023/06/29 10:26:11;;;;;;;34.47;24.03;;;;;;;24.75;59.04;100936.47;5046335;28;20037;-65
2023/06/29 10:28:39;;;;;;;32.97;23.45;;;;;;;24.70;58.51;100931.22;5058341;28;20296;-65
2023/06/29 10:31:06;;;;;;;34.10;24.17;;;;;;;24.66;59.30;100939.66;5051049;28;20052;-66
2023/06/29 10:33:45;;;;;;;36.35;24.52;;;;;;;24.49;59.94;100940.47;5063841;28;20051;-65
2023/06/29 10:36:13;;;;;;;35.03;24.33;;;;;;;24.51;59.90;100932.44;5059703;28;20040;-66
2023/06/29 10:38:41;;;;;;;35.88;24.35;;;;;;;24.28;60.91;100929.19;5039694;28;20041;-66
2023/06/29 10:41:27;;;;;;;36.20;26.30;;;;;;;24.11;61.59;100924.34;5053432;28;20056;-66
2023/06/29 10:44:05;;;;;;;37.42;25.63;;;;;;;24.06;61.88;100913.50;5052487;28;20052;-66
2023/06/29 10:46:48;;;;;;;37.65;27.83;;;;;;;24.48;60.46;100910.69;5052483;28;20052;-65
2023/06/29 10:49:24;;;;;;;36.78;26.92;;;;;;;24.75;59.72;100909.09;5052579;28;20049;-65
2023/06/29 10:51:53;;;;;;;39.75;26.70;;;;;;;25.01;58.21;100907.81;5058020;28;20063;-65
2023/06/29 10:54:24;;;;;;;40.33;30.20;;;;;;;24.53;58.42;100911.09;5056558;28;20156;-67
2023/06/29 10:56:59;;;;;;;41.05;29.95;;;;;;;23.97;60.50;100905.38;5067610;28;20053;-65
2023/06/29 10:59:27;;;;;;;40.95;29.48;;;;;;;24.34;60.53;100905.03;5057922;28;20045;-66
2023/06/29 11:01:55;;;;;;;45.55;29.40;;;;;;;24.53;58.27;100897.00;5055879;28;20048;-65
2023/06/29 11:04:23;;;;;;;41.42;30.73;;;;;;;24.75;57.99;100900.63;5063168;28;20040;-65
2023/06/29 11:06:51;;;;;;;42.05;30.83;;;;;;;24.95;57.16;100892.56;5052724;28;20077;-65
2023/06/29 11:09:19;;;;;;;40.78;30.95;;;;;;;25.16;55.87;100893.28;5056512;28;20036;-65
2023/06/29 11:11:48;;;;;;;40.28;30.55;;;;;;;24.97;55.94;100893.75;5052971;28;20433;-66
2023/06/29 11:14:17;;;;;;;41.63;30.45;;;;;;;24.56;57.27;100905.84;5068477;28;20052;-66
2023/06/29 11:16:44;;;;;;;41.28;30.55;;;;;;;24.07;59.53;100889.75;5054053;28;20408;-66